Time;durP1;ratioP1;P1;durP2;ratioP2;P2;SDS_P1;SDS_P2;PMS_P1;PMS_P2;Temp;Humidity;BMP_temperature;BMP_pressure;BME280_temperature;BME280_humidity;BME280_pressure;Samples;Min_cycle;Max_cycle;Signal;HPM_P1;HPM_P2
2022/07/16 00:01:57;;;;;;;23.52;6.75;;;12.90;99.90;;;;;;8323715;28;20021;-79
2022/07/16 00:05:57;;;;;;;18.80;6.70;;;12.70;99.90;;;;;;8319851;28;20025;-79
2022/07/16 00:09:58;;;;;;;16.88;6.30;;;12.80;99.90;;;;;;8307843;28;20049;-79
2022/07/16 00:13:58;;;;;;;8.52;6.10;;;12.70;99.90;;;;;;8306796;28;20030;-79
2022/07/16 00:22:38;;;;;;;17.90;6.40;;;12.40;99.90;;;;;;8269983;28;20026;-79
2022/07/16 00:26:38;;;;;;;15.07;6.70;;;12.20;99.90;;;;;;8286851;28;20071;-79
2022/07/16 00:30:39;;;;;;;10.95;6.65;;;11.90;99.90;;;;;;8316072;28;20490;-79
2022/07/16 00:34:40;;;;;;;16.35;7.10;;;11.90;99.90;;;;;;8309412;28;20034;-79
2022/07/16 00:38:40;;;;;;;21.60;7.05;;;11.80;99.90;;;;;;8314110;28;20029;-79
2022/07/16 00:42:41;;;;;;;7.88;6.00;;;11.90;99.90;;;;;;8310564;28;20048;-79
2022/07/16 00:46:43;;;;;;;21.27;7.03;;;11.80;99.90;;;;;;8316110;28;20025;-78
2022/07/16 00:50:43;;;;;;;21.05;6.15;;;12.10;99.90;;;;;;8308225;28;20486;-79
2022/07/16 00:54:44;;;;;;;16.05;6.25;;;12.10;99.90;;;;;;8319922;28;20021;-79
2022/07/16 00:58:46;;;;;;;17.58;6.55;;;12.10;99.90;;;;;;8321019;28;20028;-79
2022/07/16 01:02:47;;;;;;;24.38;6.97;;;12.10;99.90;;;;;;8307842;28;20021;-79
2022/07/16 01:06:49;;;;;;;25.90;6.50;;;12.30;99.90;;;;;;8322805;28;20041;-79
2022/07/16 01:10:50;;;;;;;17.65;6.65;;;12.40;99.90;;;;;;8307542;28;20057;-79
2022/07/16 01:14:51;;;;;;;14.40;6.28;;;12.20;99.90;;;;;;8311010;28;20028;-79
2022/07/16 01:18:52;;;;;;;16.52;6.70;;;12.10;99.90;;;;;;8309355;28;20025;-79
2022/07/16 01:22:54;;;;;;;14.88;6.38;;;11.90;99.90;;;;;;8307227;28;20018;-78
2022/07/16 01:26:54;;;;;;;15.63;6.53;;;12.10;99.90;;;;;;8305782;28;20386;-79
2022/07/16 01:30:55;;;;;;;12.10;7.05;;;11.80;99.90;;;;;;8308663;28;20022;-79
2022/07/16 01:34:55;;;;;;;17.02;7.03;;;11.60;99.90;;;;;;8313403;28;20072;-79
2022/07/16 01:38:56;;;;;;;12.73;5.75;;;11.50;99.90;;;;;;8304616;28;20452;-79
2022/07/16 01:42:56;;;;;;;11.52;6.28;;;11.70;99.90;;;;;;8316313;28;20405;-79
2022/07/16 01:46:58;;;;;;;11.30;5.93;;;11.70;99.90;;;;;;8314918;28;20099;-79
2022/07/16 01:50:59;;;;;;;19.98;6.30;;;11.70;99.90;;;;;;8302701;28;20397;-79
2022/07/16 01:55:00;;;;;;;12.05;6.80;;;11.40;99.90;;;;;;8314743;28;20026;-79
2022/07/16 01:59:00;;;;;;;14.55;7.05;;;11.20;99.90;;;;;;8320016;28;20052;-79
2022/07/16 02:03:01;;;;;;;14.15;7.03;;;11.00;99.90;;;;;;8315628;28;20052;-79
2022/07/16 02:07:02;;;;;;;19.58;6.72;;;10.90;99.90;;;;;;8316266;28;20018;-79
2022/07/16 02:11:03;;;;;;;12.88;7.10;;;10.90;99.90;;;;;;8314116;28;20060;-79
2022/07/16 02:15:05;;;;;;;12.45;6.68;;;10.90;99.90;;;;;;8312376;28;20033;-79
2022/07/16 02:19:05;;;;;;;18.95;6.50;;;11.00;99.90;;;;;;8312622;28;20017;-79
2022/07/16 02:23:06;;;;;;;21.98;6.60;;;11.10;99.90;;;;;;8308093;28;20532;-79
2022/07/16 02:27:07;;;;;;;16.98;6.45;;;11.20;99.90;;;;;;8299611;28;20021;-78
2022/07/16 02:31:07;;;;;;;16.77;7.50;;;11.00;99.90;;;;;;8307858;28;20028;-78
2022/07/16 02:35:08;;;;;;;20.13;7.10;;;10.70;99.90;;;;;;8301130;28;20044;-78
2022/07/16 02:39:08;;;;;;;22.73;7.75;;;10.50;99.90;;;;;;8311223;28;20526;-78
2022/07/16 02:43:10;;;;;;;17.23;7.60;;;10.40;99.90;;;;;;8316039;28;20370;-79
2022/07/16 02:47:11;;;;;;;25.63;8.13;;;10.20;99.90;;;;;;8312128;28;20103;-78
2022/07/16 02:51:11;;;;;;;20.13;7.47;;;10.00;99.90;;;;;;8311768;28;20017;-78
2022/07/16 02:55:12;;;;;;;22.27;8.38;;;;;;;;;;8311971;28;20061;-78
2022/07/16 02:59:13;;;;;;;22.50;8.80;;;9.80;99.90;;;;;;8313593;28;20540;-78
2022/07/16 03:03:13;;;;;;;22.38;7.93;;;9.60;99.90;;;;;;8329603;28;20100;-78
2022/07/16 03:07:14;;;;;;;19.48;8.48;;;9.60;99.90;;;;;;8313662;28;20014;-77
2022/07/16 03:11:15;;;;;;;16.02;8.60;;;9.60;99.90;;;;;;8312868;28;20018;-78
2022/07/16 03:15:16;;;;;;;17.77;8.30;;;9.70;99.90;;;;;;8318452;28;20030;-78
2022/07/16 03:19:16;;;;;;;18.58;7.88;;;9.70;99.90;;;;;;8325003;28;20078;-78
2022/07/16 03:23:17;;;;;;;14.68;8.13;;;9.70;99.90;;;;;;8299323;28;20543;-78
2022/07/16 03:27:17;;;;;;;18.30;8.45;;;9.60;99.90;;;;;;8307094;28;20014;-79
2022/07/16 03:31:18;;;;;;;20.80;7.80;;;9.50;99.90;;;;;;8313869;28;20022;-78
2022/07/16 03:35:19;;;;;;;26.70;8.80;;;9.40;99.90;;;;;;8319643;28;20058;-78
2022/07/16 03:39:19;;;;;;;24.50;7.90;;;9.50;99.90;;;;;;8326095;28;20101;-78
2022/07/16 03:43:20;;;;;;;26.42;7.97;;;9.90;99.90;;;;;;8319132;28;20029;-78
2022/07/16 03:47:20;;;;;;;20.35;7.55;;;10.00;99.90;;;;;;8316917;28;20073;-78
2022/07/16 03:51:21;;;;;;;27.88;8.05;;;9.90;99.90;;;;;;8302700;28;20022;-78
2022/07/16 03:55:21;;;;;;;17.48;8.10;;;9.70;99.90;;;;;;8320602;28;20405;-78
2022/07/16 03:59:22;;;;;;;25.08;9.05;;;9.50;99.90;;;;;;8317223;28;20026;-77
2022/07/16 04:03:24;;;;;;;22.67;8.32;;;9.50;99.90;;;;;;8316698;28;20474;-78
2022/07/16 04:07:25;;;;;;;18.20;8.77;;;10.00;99.90;;;;;;8305701;28;20025;-78
2022/07/16 04:11:25;;;;;;;16.73;8.70;;;10.30;99.90;;;;;;8306680;28;20053;-79
2022/07/16 04:15:26;;;;;;;23.42;7.10;;;10.90;99.90;;;;;;8304283;28;20025;-78
2022/07/16 04:19:27;;;;;;;18.92;6.15;;;11.50;99.90;;;;;;8322625;28;20022;-78
2022/07/16 04:23:27;;;;;;;10.82;6.13;;;12.20;99.90;;;;;;8320474;28;20084;-78
2022/07/16 04:27:28;;;;;;;10.88;6.07;;;13.00;99.90;;;;;;8309852;28;20018;-78
2022/07/16 04:31:28;;;;;;;10.57;5.65;;;13.40;99.90;;;;;;8301736;28;20088;-79
2022/07/16 04:35:29;;;;;;;8.80;6.05;;;13.50;99.90;;;;;;8309278;28;20026;-78
2022/07/16 04:39:29;;;;;;;11.38;4.93;;;13.70;99.90;;;;;;8314356;28;20026;-78
2022/07/16 04:43:30;;;;;;;9.00;5.38;;;14.30;99.90;;;;;;8313816;28;20069;-78
2022/07/16 04:47:31;;;;;;;8.65;4.97;;;14.60;99.90;;;;;;8316489;28;20021;-85
2022/07/16 04:51:31;;;;;;;6.20;4.53;;;14.80;99.90;;;;;;8313955;28;20021;-85
2022/07/16 04:55:32;;;;;;;10.07;4.70;;;14.80;99.90;;;;;;8313084;28;20028;-86
2022/07/16 04:59:32;;;;;;;10.23;5.18;;;15.20;99.90;;;;;;8314276;28;20061;-86
2022/07/16 05:03:33;;;;;;;5.78;4.60;;;15.70;99.90;;;;;;8308358;28;20497;-85
2022/07/16 05:07:34;;;;;;;7.15;4.70;;;16.40;99.90;;;;;;8313941;28;20025;-85
2022/07/16 05:11:34;;;;;;;6.15;3.90;;;17.00;99.90;;;;;;8314866;28;20029;-85
2022/07/16 05:15:35;;;;;;;6.63;4.55;;;17.60;99.90;;;;;;8309029;28;20026;-85
2022/07/16 05:19:35;;;;;;;7.18;4.78;;;17.60;99.90;;;;;;8301708;28;20022;-86
2022/07/16 05:23:36;;;;;;;7.20;4.55;;;18.20;99.90;;;;;;8290096;28;20065;-86
2022/07/16 05:27:37;;;;;;;5.68;4.57;;;18.80;99.90;;;;;;8302003;28;20441;-86
2022/07/16 05:31:37;;;;;;;9.45;4.60;;;19.50;99.90;;;;;;8288333;28;20036;-87
2022/07/16 05:35:39;;;;;;;7.00;4.63;;;19.70;99.90;;;;;;8295178;28;20040;-87
2022/07/16 05:39:39;;;;;;;8.73;4.82;;;20.10;99.90;;;;;;8302298;28;20056;-85
2022/07/16 05:43:40;;;;;;;8.43;4.43;;;20.70;99.90;;;;;;8301170;28;20595;-85
2022/07/16 05:47:40;;;;;;;10.60;4.88;;;20.70;99.90;;;;;;8299486;28;20073;-86
2022/07/16 05:51:41;;;;;;;8.10;4.32;;;20.90;99.90;;;;;;8291853;28;20053;-87
2022/07/16 05:55:41;;;;;;;7.20;4.82;;;21.10;99.90;;;;;;8308595;28;20025;-85
2022/07/16 05:59:42;;;;;;;8.77;4.85;;;21.30;99.90;;;;;;8315110;28;20029;-85
2022/07/16 06:03:43;;;;;;;9.43;5.00;;;21.50;99.90;;;;;;8301978;28;20126;-86
2022/07/16 06:07:43;;;;;;;7.72;4.68;;;21.70;99.90;;;;;;8296281;28;20064;-86
2022/07/16 06:11:46;;;;;;;8.82;4.72;;;22.50;99.90;;;;;;8307201;28;20032;-86
2022/07/16 06:15:49;;;;;;;5.93;3.80;;;22.70;99.90;;;;;;8295494;28;20029;-87
2022/07/16 06:19:50;;;;;;;11.98;4.20;;;23.30;99.90;;;;;;8302943;28;20617;-84
2022/07/16 06:23:50;;;;;;;9.02;4.30;;;22.90;99.90;;;;;;8311030;28;20136;-87
2022/07/16 06:27:51;;;;;;;9.07;4.47;;;23.00;99.90;;;;;;8312237;28;20026;-80
2022/07/16 06:31:51;;;;;;;10.25;4.45;;;22.90;97.90;;;;;;8314452;28;20558;-80
2022/07/16 06:35:52;;;;;;;9.55;4.55;;;23.30;98.30;;;;;;8311701;28;20042;-79
2022/07/16 06:39:53;;;;;;;6.60;3.67;;;24.20;97.00;;;;;;8315843;28;20032;-79
2022/07/16 06:43:53;;;;;;;5.18;3.60;;;24.30;93.10;;;;;;8309649;28;20276;-80
2022/07/16 06:47:54;;;;;;;5.97;3.28;;;24.60;93.60;;;;;;8306656;28;20104;-79
2022/07/16 06:51:54;;;;;;;8.13;3.92;;;24.90;91.40;;;;;;8307234;28;20029;-80
2022/07/16 06:55:55;;;;;;;4.15;3.30;;;25.00;91.80;;;;;;8308106;28;20083;-80
2022/07/16 06:59:55;;;;;;;5.28;3.25;;;25.60;90.40;;;;;;8312715;28;20053;-79
2022/07/16 07:03:56;;;;;;;3.63;2.97;;;25.50;88.00;;;;;;8309134;28;20022;-80
2022/07/16 07:07:56;;;;;;;5.13;3.10;;;25.40;83.70;;;;;;8309256;28;20501;-79
2022/07/16 07:11:57;;;;;;;4.70;3.20;;;25.50;88.30;;;;;;8306685;28;20482;-79
2022/07/16 07:15:58;;;;;;;5.72;3.25;;;25.30;87.30;;;;;;8307772;28;20131;-79
2022/07/16 07:19:58;;;;;;;6.47;3.22;;;25.30;88.70;;;;;;8308542;28;20479;-79
2022/07/16 07:23:59;;;;;;;4.47;3.03;;;25.30;88.90;;;;;;8308109;28;20378;-79
2022/07/16 07:27:59;;;;;;;9.57;3.25;;;25.80;86.30;;;;;;8311476;28;20485;-80
2022/07/16 07:32:00;;;;;;;4.38;2.92;;;26.20;84.00;;;;;;8310134;28;20398;-80
2022/07/16 07:36:00;;;;;;;4.07;2.75;;;26.70;79.00;;;;;;8309015;28;20034;-79
2022/07/16 07:40:03;;;;;;;6.38;3.00;;;26.50;78.70;;;;;;8312625;28;20030;-80
2022/07/16 07:44:04;;;;;;;6.22;2.70;;;25.80;79.30;;;;;;8307229;28;20051;-79
2022/07/16 07:48:05;;;;;;;7.90;2.65;;;25.90;77.80;;;;;;8307888;28;20490;-79
2022/07/16 07:52:07;;;;;;;4.43;2.35;;;25.40;78.60;;;;;;8309891;28;20053;-78
2022/07/16 07:56:10;;;;;;;5.32;2.70;;;25.50;76.50;;;;;;8306340;28;20486;-79
2022/07/16 08:00:11;;;;;;;5.97;2.58;;;25.70;79.70;;;;;;8309887;28;20030;-80
2022/07/16 08:04:12;;;;;;;4.28;2.40;;;25.70;71.00;;;;;;8310790;28;20032;-81
2022/07/16 08:08:12;;;;;;;4.22;2.90;;;25.80;74.70;;;;;;8310213;28;20034;-81
2022/07/16 08:12:13;;;;;;;4.55;2.75;;;26.40;76.80;;;;;;8309266;28;20026;-80
2022/07/16 08:16:13;;;;;;;6.03;2.60;;;26.60;74.80;;;;;;8309469;28;20472;-80
2022/07/16 08:20:14;;;;;;;4.80;2.60;;;26.30;71.30;;;;;;8295585;28;20117;-80
2022/07/16 08:28:34;;;;;;;4.40;2.63;;;25.40;73.90;;;;;;8296862;28;20095;-80
2022/07/16 08:32:35;;;;;;;3.85;2.67;;;25.00;74.60;;;;;;8300032;28;20395;-79
2022/07/16 08:36:36;;;;;;;6.63;2.70;;;25.20;81.10;;;;;;8291425;28;20084;-81
2022/07/16 08:40:40;;;;;;;4.32;2.45;;;25.50;71.50;;;;;;8304004;28;20045;-79
2022/07/16 08:44:41;;;;;;;41.35;7.85;;;25.30;72.90;;;;;;8305316;28;20478;-80
2022/07/16 08:48:42;;;;;;;5.90;2.80;;;25.60;75.50;;;;;;8303339;28;20164;-80
2022/07/16 08:52:52;;;;;;;5.85;2.67;;;25.80;75.00;;;;;;8301419;28;20028;-81
2022/07/16 08:56:52;;;;;;;7.03;3.20;;;26.40;76.20;;;;;;8298731;28;20026;-81
2022/07/16 09:00:53;;;;;;;6.18;3.05;;;26.40;70.60;;;;;;8309177;28;20106;-81
2022/07/16 09:04:53;;;;;;;4.82;2.83;;;26.50;68.30;;;;;;8310186;28;20026;-81
2022/07/16 09:08:54;;;;;;;4.85;3.20;;;26.40;64.80;;;;;;8313911;28;20760;-81
2022/07/16 09:12:58;;;;;;;5.28;3.30;;;26.20;68.40;;;;;;8298993;28;20101;-80
2022/07/16 09:17:00;;;;;;;5.57;3.22;;;26.30;69.40;;;;;;8299068;28;20029;-81
2022/07/16 09:21:01;;;;;;;5.45;3.30;;;25.90;69.70;;;;;;8304386;28;20030;-80
2022/07/16 09:25:02;;;;;;;3.72;3.00;;;25.70;67.40;;;;;;8293257;28;20029;-81
2022/07/16 09:29:03;;;;;;;4.43;3.00;;;25.60;69.40;;;;;;8304288;28;20481;-81
2022/07/16 09:33:16;;;;;;;4.03;2.85;;;25.80;66.30;;;;;;8304166;28;20113;-81
2022/07/16 09:37:16;;;;;;;5.57;2.97;;;25.80;65.70;;;;;;8310409;28;20506;-80
2022/07/16 09:41:18;;;;;;;6.85;3.20;;;25.90;66.00;;;;;;8307298;28;20030;-81
2022/07/16 09:45:20;;;;;;;5.05;2.72;;;26.20;66.30;;;;;;8307185;28;20026;-81
2022/07/16 09:49:21;;;;;;;3.42;2.65;;;26.30;67.20;;;;;;8307658;28;20394;-81
2022/07/16 09:53:24;;;;;;;3.15;2.83;;;26.40;66.40;;;;;;8310416;28;20018;-82
2022/07/16 09:57:27;;;;;;;4.57;3.00;;;26.70;66.60;;;;;;8302273;28;20104;-81
2022/07/16 10:01:27;;;;;;;6.13;3.10;;;26.80;63.50;;;;;;8309277;28;20685;-81
2022/07/16 10:05:28;;;;;;;5.00;2.92;;;26.60;69.40;;;;;;8310564;28;20021;-81
2022/07/16 10:09:29;;;;;;;3.92;2.50;;;26.70;66.80;;;;;;8305970;28;20025;-81
2022/07/16 10:13:31;;;;;;;3.35;2.60;;;26.80;62.50;;;;;;8312780;28;20080;-81
2022/07/16 10:17:35;;;;;;;4.78;2.70;;;26.60;69.90;;;;;;8303957;28;20040;-80
2022/07/16 10:21:36;;;;;;;3.97;2.60;;;26.30;62.50;;;;;;8304537;28;20104;-81
2022/07/16 10:25:36;;;;;;;4.32;2.67;;;26.00;65.60;;;;;;8290363;28;20406;-82
2022/07/16 10:29:41;;;;;;;3.30;2.55;;;26.40;66.30;;;;;;8300972;28;20061;-82
2022/07/16 10:33:41;;;;;;;3.03;2.30;;;26.50;59.90;;;;;;8283307;28;20030;-81
2022/07/16 10:37:42;;;;;;;8.70;2.80;;;26.60;62.00;;;;;;8290143;28;20410;-81
2022/07/16 10:41:51;;;;;;;3.05;2.65;;;26.60;59.30;;;;;;8288582;28;20093;-82
2022/07/16 10:45:57;;;;;;;5.82;2.83;;;26.90;61.40;;;;;;8307062;28;20052;-81
2022/07/16 10:50:18;;;;;;;4.03;2.58;;;27.40;57.90;;;;;;8307277;28;20022;-81
2022/07/16 10:54:19;;;;;;;4.38;2.80;;;27.20;60.50;;;;;;8301906;28;20604;-81
2022/07/16 10:58:26;;;;;;;5.45;2.38;;;27.30;59.80;;;;;;8317922;28;20032;-81
2022/07/16 11:02:26;;;;;;;4.35;2.38;;;27.70;60.00;;;;;;8312621;28;20048;-82
2022/07/16 11:06:27;;;;;;;3.42;2.20;;;28.40;52.40;;;;;;8315637;28;20017;-82
2022/07/16 11:10:27;;;;;;;6.15;2.38;;;28.50;54.00;;;;;;8305997;28;20030;-82
2022/07/16 11:14:32;;;;;;;4.88;2.25;;;28.70;51.40;;;;;;8314348;28;20515;-81
2022/07/16 11:18:37;;;;;;;3.30;2.17;;;29.70;51.90;;;;;;8312569;28;20060;-82
2022/07/16 11:22:38;;;;;;;5.15;2.50;;;30.60;50.00;;;;;;8333462;28;20035;-83
2022/07/16 11:26:38;;;;;;;4.65;2.42;;;31.20;52.30;;;;;;8311675;28;20432;-81
2022/07/16 11:30:39;;;;;;;3.20;2.90;;;29.80;51.30;;;;;;8325322;28;20120;-82
2022/07/16 11:34:39;;;;;;;3.63;2.50;;;30.20;55.40;;;;;;8320817;28;20052;-82
2022/07/16 11:38:40;;;;;;;3.55;2.65;;;31.10;52.80;;;;;;8304878;28;20444;-82
2022/07/16 11:42:41;;;;;;;3.15;2.30;;;30.50;51.10;;;;;;8320455;28;20057;-82
2022/07/16 11:46:42;;;;;;;3.65;2.30;;;30.90;47.20;;;;;;8314728;28;20025;-82
2022/07/16 11:50:45;;;;;;;5.38;3.00;;;31.40;51.60;;;;;;8319995;28;20521;-82
2022/07/16 11:54:45;;;;;;;5.18;2.78;;;30.70;50.00;;;;;;8318478;28;20029;-81
2022/07/16 11:58:46;;;;;;;2.88;2.47;;;30.80;52.50;;;;;;8313431;28;20025;-81
2022/07/16 12:02:52;;;;;;;3.80;2.83;;;30.30;55.10;;;;;;8325826;28;20035;-82
2022/07/16 12:06:53;;;;;;;6.43;2.80;;;30.30;50.10;;;;;;8307749;28;20119;-82
2022/07/16 12:11:01;;;;;;;5.25;2.85;;;31.40;51.40;;;;;;8314964;28;20064;-82
2022/07/16 12:15:05;;;;;;;5.60;3.05;;;32.60;47.50;;;;;;8304739;28;20057;-81
2022/07/16 12:19:14;;;;;;;4.10;2.60;;;31.90;50.60;;;;;;8316312;28;20022;-82
2022/07/16 12:23:31;;;;;;;4.97;3.30;;;33.20;48.00;;;;;;8303411;28;20075;-83
2022/07/16 12:27:49;;;;;;;3.40;2.40;;;34.30;43.70;;;;;;8314150;28;20101;-82
2022/07/16 12:32:03;;;;;;;4.45;3.05;;;32.30;46.50;;;;;;8293290;28;20093;-82
2022/07/16 12:36:06;;;;;;;6.57;2.97;;;32.30;47.20;;;;;;8306819;28;20074;-82
2022/07/16 12:40:12;;;;;;;3.75;2.63;;;33.70;47.90;;;;;;8298889;28;20033;-81
2022/07/16 12:44:18;;;;;;;4.30;2.60;;;31.10;50.20;;;;;;8311357;28;20436;-81
2022/07/16 12:48:18;;;;;;;3.55;2.70;;;30.80;49.70;;;;;;8309804;28;20029;-82
2022/07/16 12:52:19;;;;;;;4.63;2.85;;;31.90;49.90;;;;;;8313544;28;20983;-80
2022/07/16 13:00:39;;;;;;;5.00;3.10;;;30.30;52.50;;;;;;8307568;28;20112;-83
2022/07/16 13:04:39;;;;;;;6.57;3.28;;;31.60;50.50;;;;;;8299516;28;20038;-81
2022/07/16 13:08:41;;;;;;;5.57;2.90;;;32.20;49.70;;;;;;8310927;28;20038;-81
2022/07/16 13:12:41;;;;;;;3.47;2.80;;;32.10;48.90;;;;;;8312640;28;20600;-81
2022/07/16 13:16:42;;;;;;;4.90;3.20;;;33.90;43.70;;;;;;8305637;28;20293;-82
2022/07/16 13:20:42;;;;;;;4.00;2.85;;;34.50;44.30;;;;;;8313211;28;20025;-81
2022/07/16 13:24:43;;;;;;;3.10;2.70;;;34.80;41.30;;;;;;8300554;28;20018;-81
2022/07/16 13:28:43;;;;;;;3.90;2.75;;;34.10;43.10;;;;;;8311644;28;20037;-81
2022/07/16 13:32:44;;;;;;;8.77;2.70;;;32.80;46.00;;;;;;8296643;28;20371;-81
2022/07/16 13:36:46;;;;;;;3.90;2.70;;;32.40;46.80;;;;;;8305703;28;20457;-82
2022/07/16 13:40:47;;;;;;;6.70;2.83;;;33.60;43.90;;;;;;8316353;28;20113;-80
2022/07/16 13:44:48;;;;;;;5.18;2.60;;;34.30;42.20;;;;;;8302544;28;20029;-81
2022/07/16 13:48:49;;;;;;;3.20;2.38;;;32.50;45.40;;;;;;8307383;28;20100;-82
2022/07/16 13:52:50;;;;;;;4.72;2.08;;;34.00;43.00;;;;;;8300254;28;20041;-81
2022/07/16 13:56:51;;;;;;;3.53;2.58;;;34.00;41.20;;;;;;8311986;28;20456;-82
2022/07/16 14:00:57;;;;;;;2.70;2.45;;;33.30;43.00;;;;;;8305549;28;20048;-82
2022/07/16 14:04:58;;;;;;;3.95;2.50;;;33.50;41.80;;;;;;8300963;28;20022;-81
2022/07/16 14:08:58;;;;;;;3.92;2.30;;;32.80;42.60;;;;;;8302597;28;20030;-80
2022/07/16 14:12:59;;;;;;;4.97;2.20;;;34.70;38.60;;;;;;8295881;28;20034;-82
2022/07/16 14:17:00;;;;;;;3.65;2.38;;;34.40;41.70;;;;;;8299769;28;20026;-80
2022/07/16 14:21:00;;;;;;;3.30;2.08;;;33.30;41.50;;;;;;8307496;28;20067;-80
2022/07/16 14:25:01;;;;;;;4.00;2.53;;;35.10;39.20;;;;;;8303597;28;20371;-80
2022/07/16 14:29:01;;;;;;;2.92;2.13;;;33.00;41.60;;;;;;8306178;28;20083;-81
2022/07/16 14:33:02;;;;;;;4.50;2.22;;;32.90;42.50;;;;;;8302028;28;20026;-81
2022/07/16 14:37:03;;;;;;;2.70;2.03;;;32.70;41.70;;;;;;8302248;28;20080;-81
2022/07/16 14:41:03;;;;;;;3.38;2.15;;;33.50;43.30;;;;;;8302827;28;20656;-82
2022/07/16 14:45:09;;;;;;;7.68;2.28;;;34.00;41.80;;;;;;8304520;28;20026;-81
2022/07/16 14:49:09;;;;;;;2.50;1.98;;;35.30;39.30;;;;;;8308368;28;20029;-81
2022/07/16 14:53:11;;;;;;;5.90;2.10;;;33.80;39.80;;;;;;8313187;28;20028;-81
2022/07/16 14:57:11;;;;;;;3.22;1.98;;;32.70;42.30;;;;;;8319198;28;20063;-82
2022/07/16 15:01:12;;;;;;;3.97;2.22;;;32.40;41.10;;;;;;8312497;28;20505;-80
2022/07/16 15:05:13;;;;;;;4.70;2.15;;;33.80;41.80;;;;;;8317944;28;20486;-81
2022/07/16 15:09:14;;;;;;;3.08;2.10;;;32.00;42.30;;;;;;8321803;28;20029;-81
2022/07/16 15:13:14;;;;;;;2.85;1.70;;;33.00;40.30;;;;;;8317168;28;20017;-80
2022/07/16 15:17:15;;;;;;;2.03;1.65;;;31.80;44.00;;;;;;8313856;28;20030;-81
2022/07/16 15:21:15;;;;;;;5.20;1.90;;;31.10;44.20;;;;;;8311496;28;20334;-80
2022/07/16 15:25:16;;;;;;;3.15;1.77;;;31.70;43.60;;;;;;8312392;28;20051;-81
2022/07/16 15:29:17;;;;;;;2.47;1.90;;;31.50;42.20;;;;;;8309437;28;20034;-82
2022/07/16 15:37:37;;;;;;;3.80;1.70;;;32.90;44.50;;;;;;8308715;28;20032;-81
2022/07/16 15:41:39;;;;;;;3.58;1.75;;;32.70;43.10;;;;;;8304687;28;20030;-81
2022/07/16 15:45:39;;;;;;;1.90;1.50;;;30.50;45.10;;;;;;8313470;28;20022;-78
2022/07/16 15:49:40;;;;;;;2.55;1.83;;;27.90;47.20;;;;;;8311483;28;20136;-80
2022/07/16 15:53:40;;;;;;;4.90;1.73;;;26.40;51.00;;;;;;8308685;28;20489;-81
2022/07/16 15:57:41;;;;;;;2.45;1.58;;;25.70;52.40;;;;;;8315900;28;20374;-80
2022/07/16 16:01:42;;;;;;;3.45;2.00;;;25.40;54.70;;;;;;8318007;28;20064;-81
2022/07/16 16:05:42;;;;;;;4.07;1.92;;;25.10;54.30;;;;;;8314855;28;20045;-81
2022/07/16 16:09:43;;;;;;;3.70;1.70;;;24.80;54.80;;;;;;8311122;28;20026;-80
2022/07/16 16:13:43;;;;;;;3.28;1.55;;;24.80;54.50;;;;;;8323844;28;20021;-80
2022/07/16 16:17:44;;;;;;;3.95;1.60;;;24.60;55.20;;;;;;8309145;28;20033;-80
2022/07/16 16:21:45;;;;;;;5.18;1.73;;;24.60;54.00;;;;;;8313322;28;20109;-81
2022/07/16 16:25:46;;;;;;;3.10;1.52;;;24.60;54.60;;;;;;8313085;28;20022;-80
2022/07/16 16:29:47;;;;;;;2.00;1.40;;;24.70;54.10;;;;;;8322567;28;20090;-81
2022/07/16 16:33:47;;;;;;;2.47;1.30;;;25.30;54.30;;;;;;8311075;28;20041;-81
2022/07/16 16:37:48;;;;;;;3.53;1.40;;;26.30;54.20;;;;;;8317855;28;20132;-81
2022/07/16 16:41:48;;;;;;;2.80;1.30;;;26.40;50.20;;;;;;8305541;28;20032;-81
2022/07/16 16:45:49;;;;;;;2.97;1.35;;;26.10;50.90;;;;;;8304377;28;20628;-80
2022/07/16 16:49:49;;;;;;;1.90;1.40;;;25.60;52.60;;;;;;8317329;28;20033;-79
2022/07/16 16:53:50;;;;;;;2.75;1.33;;;25.30;54.40;;;;;;8308098;28;20034;-79
2022/07/16 16:57:50;;;;;;;3.72;1.40;;;24.70;54.70;;;;;;8314256;28;20080;-81
2022/07/16 17:01:51;;;;;;;2.13;1.40;;;24.30;54.00;;;;;;8316601;28;20089;-79
2022/07/16 17:05:52;;;;;;;3.78;1.50;;;24.10;52.70;;;;;;8304719;28;20495;-80
2022/07/16 17:09:53;;;;;;;3.00;1.48;;;23.90;57.70;;;;;;8299556;28;20032;-80
2022/07/16 17:13:53;;;;;;;3.92;1.38;;;23.60;58.30;;;;;;8303372;28;20033;-81
2022/07/16 17:17:54;;;;;;;1.80;1.30;;;23.30;56.20;;;;;;8310219;28;20486;-80
2022/07/16 17:21:54;;;;;;;3.60;1.42;;;23.10;56.40;;;;;;8299561;28;20037;-80
2022/07/16 17:25:57;;;;;;;4.93;1.50;;;23.00;57.00;;;;;;8300129;28;20040;-81
2022/07/16 17:29:58;;;;;;;2.58;1.20;;;22.80;58.20;;;;;;8307930;28;20034;-80
2022/07/16 17:33:59;;;;;;;2.17;1.15;;;22.70;58.60;;;;;;8311778;28;20485;-80
2022/07/16 17:37:59;;;;;;;3.92;1.27;;;22.50;59.80;;;;;;8299246;28;20065;-79
2022/07/16 17:42:00;;;;;;;6.85;1.60;;;22.30;59.20;;;;;;8289575;28;20513;-80
2022/07/16 17:46:00;;;;;;;1.52;1.40;;;22.30;60.60;;;;;;8281611;28;20105;-80
2022/07/16 17:50:01;;;;;;;1.55;1.25;;;22.10;62.30;;;;;;8285662;28;20113;-79
2022/07/16 17:54:03;;;;;;;2.35;1.60;;;22.10;59.80;;;;;;8288767;28;20050;-79
2022/07/16 17:58:04;;;;;;;2.90;1.40;;;22.00;60.50;;;;;;8288920;28;20112;-79
2022/07/16 18:02:06;;;;;;;1.67;1.20;;;21.90;63.30;;;;;;8283858;28;20111;-79
2022/07/16 18:06:06;;;;;;;5.25;1.40;;;21.80;62.60;;;;;;8275197;28;20607;-79
2022/07/16 18:10:08;;;;;;;4.20;1.50;;;21.70;62.60;;;;;;8290785;28;20049;-80
2022/07/16 18:14:10;;;;;;;3.20;1.33;;;21.50;62.70;;;;;;8293619;28;20412;-80
2022/07/16 18:18:10;;;;;;;3.20;1.20;;;21.50;61.80;;;;;;8291519;28;20026;-79
2022/07/16 18:22:11;;;;;;;2.50;1.15;;;21.30;62.90;;;;;;8294110;28;20676;-79
2022/07/16 18:26:11;;;;;;;2.85;1.40;;;21.10;64.90;;;;;;8289576;28;20018;-81
2022/07/16 18:30:12;;;;;;;2.45;1.35;;;21.00;66.90;;;;;;8292966;28;20478;-80
2022/07/16 18:34:13;;;;;;;3.70;1.50;;;20.70;66.50;;;;;;8287561;28;20115;-80
2022/07/16 18:38:14;;;;;;;2.38;1.40;;;20.40;71.10;;;;;;8293859;28;20032;-79
2022/07/16 18:42:14;;;;;;;2.00;1.25;;;20.20;69.70;;;;;;8291467;28;20014;-80
2022/07/16 18:46:15;;;;;;;4.38;1.48;;;19.90;72.00;;;;;;8298788;28;20493;-79
2022/07/16 18:50:15;;;;;;;3.42;1.35;;;19.60;73.00;;;;;;8284666;28;20113;-79
2022/07/16 18:54:16;;;;;;;2.50;1.10;;;19.50;73.60;;;;;;8285141;28;20033;-80
2022/07/16 18:58:17;;;;;;;2.78;1.20;;;19.30;74.80;;;;;;8295436;28;20026;-81
2022/07/16 19:02:18;;;;;;;2.75;1.50;;;19.00;74.80;;;;;;8282793;28;20454;-80
2022/07/16 19:06:18;;;;;;;1.55;1.13;;;18.80;76.00;;;;;;8288143;28;20019;-80
2022/07/16 19:10:19;;;;;;;1.30;1.05;;;18.50;76.80;;;;;;8286591;28;20030;-80
2022/07/16 19:14:20;;;;;;;1.90;1.48;;;18.40;77.90;;;;;;8288106;28;20472;-80
2022/07/16 19:18:20;;;;;;;4.20;1.50;;;18.40;79.30;;;;;;8284505;28;20034;-80
2022/07/16 19:22:22;;;;;;;2.05;1.23;;;18.30;78.60;;;;;;8290625;28;20029;-79
2022/07/16 19:26:26;;;;;;;3.47;1.50;;;18.40;78.70;;;;;;8300109;28;20014;-80
2022/07/16 19:30:26;;;;;;;2.10;1.30;;;18.30;79.20;;;;;;8298372;28;20022;-79
2022/07/16 19:34:27;;;;;;;2.35;1.40;;;18.00;79.10;;;;;;8306101;28;20045;-79
2022/07/16 19:38:29;;;;;;;1.75;1.40;;;17.80;83.80;;;;;;8308308;28;20452;-86
2022/07/16 19:42:30;;;;;;;3.33;1.40;;;17.50;86.00;;;;;;8310421;28;20045;-86
2022/07/16 19:46:30;;;;;;;3.38;1.70;;;17.00;88.30;;;;;;8316592;28;20033;-86
2022/07/16 19:50:31;;;;;;;2.03;1.40;;;16.90;89.90;;;;;;8311826;28;20080;-86
2022/07/16 19:54:31;;;;;;;3.75;1.52;;;17.00;90.50;;;;;;8308449;28;20024;-85
2022/07/16 19:58:32;;;;;;;4.18;1.90;;;17.00;91.00;;;;;;8309070;28;20650;-86
2022/07/16 20:02:32;;;;;;;4.40;2.00;;;16.90;91.30;;;;;;8305269;28;20032;-86
2022/07/16 20:06:33;;;;;;;2.67;1.73;;;16.70;92.40;;;;;;8308337;28;20501;-86
2022/07/16 20:10:33;;;;;;;5.00;1.60;;;16.60;92.20;;;;;;8321328;28;20086;-86
2022/07/16 20:14:34;;;;;;;3.22;1.67;;;16.80;90.80;;;;;;8309560;28;20421;-78
2022/07/16 20:18:35;;;;;;;2.70;1.70;;;16.70;92.90;;;;;;8301105;28;20056;-78
2022/07/16 20:22:36;;;;;;;4.38;1.95;;;16.40;93.80;;;;;;8306564;28;20033;-78
2022/07/16 20:26:36;;;;;;;4.72;2.15;;;16.00;94.60;;;;;;8301022;28;20502;-79
2022/07/16 20:30:37;;;;;;;5.93;2.50;;;15.80;95.80;;;;;;8310176;28;20075;-79
2022/07/16 20:34:37;;;;;;;2.97;2.35;;;15.50;99.10;;;;;;8301097;28;20034;-79
2022/07/16 20:38:38;;;;;;;4.68;2.60;;;15.50;99.90;;;;;;8319955;28;20108;-79
2022/07/16 20:42:42;;;;;;;4.80;3.03;;;15.90;99.80;;;;;;8310364;28;20501;-79
2022/07/16 20:46:43;;;;;;;4.07;2.97;;;16.00;99.40;;;;;;8307961;28;20022;-78
2022/07/16 20:50:43;;;;;;;5.45;3.10;;;15.80;99.90;;;;;;8315968;28;20079;-78
2022/07/16 20:54:44;;;;;;;5.53;3.13;;;15.40;99.90;;;;;;8315209;28;20049;-79
2022/07/16 20:58:44;;;;;;;3.50;2.72;;;15.20;99.90;;;;;;8307353;28;20018;-78
2022/07/16 21:02:45;;;;;;;5.28;2.47;;;15.10;99.90;;;;;;8306936;28;20018;-79
2022/07/16 21:06:45;;;;;;;4.93;2.83;;;15.20;99.90;;;;;;8322969;28;20025;-79
2022/07/16 21:10:46;;;;;;;3.60;2.30;;;15.10;99.90;;;;;;8312414;28;20105;-79